Legnica, Poland
Current Conditions -  °F | °C
As of 12:30 PM on Monday 26 Jan 2015 (Local Time) from EPWR Reporting Station
Broken Clouds Broken Clouds  
Wind Chill: 36°   Ceiling: 3000
Heat Index: 36°   Visibility: 6mi
Dew Point: 30°   Wind: 3mph
Humidity: 81%   Direction: 230°SW
Pressure: 30.24"   Gusts: NA
Location:  51.21°N, 16.16°E
Report Text: EPWR 261030Z 23003KT 160V260 9999 FEW020 BKN030 02/M01 Q1024
Loading
Personal Weather Stations






























Interactive Weather Map New forecast layout! Learn more

10-Day Weather Forecast

Advertisements
Track Severe Weather on mobile